Flugplatz Schleswig-Kropp (EDXC)

Hier findest Du alle Informationen zum Flugplatz Schleswig-Kropp (EDXC).

Informationen für Piloten zum Flugplatz Schleswig-Kropp

Hier findest Du alle relevanten Informationen, die Du als Pilot benötigst, um Schleswig-Kropp anzufliegen.

Flugplatz: Schleswig-Kropp ICAO-Code: EDXC
Frequenz Turm: 118,675 Mhz GAFOR Gebiet: 4
Frequenz Ground: 118,675 Mhz Mogas: ja
Platzrunde: S/N 600 ft Landegebühr: -
Platzhöhe: 54 ft Sunrise: 03:06 Uhr UTC
Pisten: 09/27 - 880 m x 30 m, GRAS Sunset: 19:49 Uhr UTC

Mitglieder, die in Schleswig-Kropp fliegen

Flugwetter am Flugplatz Schleswig-Kropp

Die METAR Information stammen aus EDHK (39.48 km entfernt).

METAR Code:
2024/07/04 16:20
EDHK 041620Z AUTO 30012KT 9999 // BKN036/// OVC110/// 10/07 Q1005

Flugschulen am Flugplatz Schleswig-Kropp

Am Flugplatz Schleswig-Kropp gibt es eine Flugschule.

Benachbarte Flugplätze und Flugschulen

Es gibt 11 weitere Flugplätze in einem Umkreis von 50 km um den Flugplatz Schleswig-Kropp.

Jetzt anmelden

Passwort vergessen

Umfrage Archiv

Wie häufig haltet Ihr die Halbkreisflugregel ein?

Eher häufig!
36.4 %
Immer!
30.2 %
Hin und wieder!
17.1 %
Nie!
9.5 %
Eher selten!
6.9 %
Stimmen: 275 | Diskussion
Anzeige: Roland Aircraft
Statistik Alle Mitglieder

Aktuell sind 24 Besucher online, davon 1 Mitglied und 23 Gäste.


Mitglieder online:
slintes 

Anzeige: EasyVFR